METAR stanice u blizini

 

LYBE - Beograd / Surčin, Srbija
Ažurirano: 23/10/2019 05:30
Mist, Delimično oblačno
Mist, Delimično oblačno
 Pravac vetra SI
Vetar: SI 4 km/h
Temperatura: 10°C
Tačka rose: 8°C
Vlažnost: 88%
Pritisak: 1021 hPa
Pregled: Mist
Oblaci: Partly Cloudy
Vidljivost: 5 km
2019/10/23 03:30 LYBE 230330Z 05002KT 5000 BR NSC 10/08 Q1021 NOSIG
LYBT - Beograd / Batajnica, Srbija
Ažurirano: 23/10/2019 05:30
Mist, Delimično oblačno
Mist, Delimično oblačno
 Pravac vetra SSI
Vetar: SSI 2 km/h
Temperatura: 7°C
Tačka rose: 7°C
Vlažnost: 100%
Pritisak: 1021 hPa
Pregled: Mist
Oblaci: Partly Cloudy
Vidljivost: 2 km
2019/10/23 03:30 LYBT 230330Z 02001KT 2000 BR NSC 07/07 Q1021 NOSIG
LYVR - Vršac, Srbija
Ažurirano: 22/10/2019 18:00
NOT Current
Vedro
Vedro
 Pravac vetra ISI
Vetar: ISI 6 km/h
Temperatura: 22°C
Tačka rose: 8°C
Vlažnost: 41%
Pritisak: 1022 hPa
Pregled: Vedro
Vidljivost: greater than 10 km
2019/10/22 16:00 LYVR 221600Z 07003KT CAVOK 22/08 Q1022 NOSIG
 
LYKV - Lađevci, Srbija
Ažurirano: 23/10/2019 05:30
Vedro
Vedro
 Pravac vetra calm
Vetar: Tišina
Temperatura: 4°C
Tačka rose: 4°C
Vlažnost: 100%
Pritisak: 1023 hPa
Pregled: Vedro
Vidljivost: greater than 10 km
2019/10/23 03:30 LYKV 230330Z 00000KT CAVOK 04/04 Q1023 NOSIG
LYNI - Niš, Srbija
Ažurirano: 23/10/2019 05:30
Shallow fog, Delimično oblačno
Shallow fog, Delimično oblačno
 Pravac vetra IJI
Vetar: IJI 4 km/h
Temperatura: 7°C
Tačka rose: 5°C
Vlažnost: 87%
Pritisak: 1024 hPa
Pregled: Shallow Fog
Oblaci: Partly Cloudy
Vidljivost: 10 km
2019/10/23 03:30 LYNI 230330Z 12002KT 9999 MIFG NSC 07/05 Q1024 TEMPO 3000 BR
BKPR - Priština, Srbija
Ažurirano: 23/10/2019 06:00
Vedro
Vedro
 Pravac vetra calm
Vetar: Tišina
Temperatura: 5°C
Tačka rose: 2°C
Vlažnost: 81%
Pritisak: 1024 hPa
Pregled: Vedro
Vidljivost: greater than 10 km
2019/10/23 04:00 BKPR 230400Z 00000KT CAVOK 05/02 Q1024 NOSIG
 
LHPP - Pecs / Pogany, Hungary
Ažurirano: 22/10/2019 18:45
NOT Current
Vedro
Vedro
 Pravac vetra IJI
Vetar: IJI 4 km/h
Temperatura: 20°C
Tačka rose: 13°C
Vlažnost: 64%
Pritisak: 1022 hPa
Pregled: Vedro
Vidljivost: greater than 10 km
2019/10/22 16:45 LHPP 221645Z 11002KT CAVOK 20/13 Q1022
LHUD - Szeged, Hungary
Ažurirano: 04/07/2019 01:45
NOT Current
Vedro
Vedro
 Pravac vetra S
Vetar: S 7 km/h
Temperatura: 18°C
Tačka rose: 13°C
Vlažnost: 73%
Pritisak: 1019 hPa
Pregled: Vedro
Vidljivost: greater than 10 km
2019/07/03 23:45 LHUD 032345Z 35004KT CAVOK 18/13 Q1019
LRTR - Timisoara, Romania
Ažurirano: 23/10/2019 05:30
Vedro
Vedro
 Pravac vetra I
Vetar: I 13 km/h
Temperatura: 10°C
Osećaj hladnoće: 8°C
Tačka rose: 8°C
Vlažnost: 88%
Pritisak: 1022 hPa
Pregled: Vedro
Vidljivost: greater than 10 km
2019/10/23 03:30 LRTR 230330Z 10007KT CAVOK 10/08 Q1022 NOSIG
 
LRCV - Craiova, Romania
Ažurirano: 23/10/2019 05:30
Mist, Delimično oblačno
Mist, Delimično oblačno
 Pravac vetra SSI
Vetar: SSI 6 km/h
Temperatura: 10°C
Tačka rose: 10°C
Vlažnost: 100%
Pritisak: 1023 hPa
Pregled: Mist
Oblaci: Partly Cloudy
Vidljivost: 5 km
2019/10/23 03:30 LRCV 230330Z 02003KT 5000 R09/1200D BR NSC 10/10 Q1023
LBSF - Sofia, Bulgaria
Ažurirano: 23/10/2019 05:30
Partly Cloudy
Partly Cloudy
 Pravac vetra ZSZ
Vetar: ZSZ 4 km/h
Temperatura: 7°C
Tačka rose: 5°C
Vlažnost: 87%
Pritisak: 1025 hPa
Oblaci: Partly Cloudy
Vidljivost: 9 km
2019/10/23 03:30 LBSF 230330Z 29002KT 9000 NSC 07/05 Q1025 TEMPO 5000 BR
LWSK - Skoplje, Makedonija
Ažurirano: 23/10/2019 05:00
Vedro
Vedro
 Pravac vetra calm
Vetar: Tišina
Temperatura: 7°C
Tačka rose: 5°C
Vlažnost: 87%
Pritisak: 1024 hPa
Pregled: Vedro
Vidljivost: greater than 10 km
2019/10/23 03:00 LWSK 230300Z 00000KT CAVOK 07/05 Q1024 NOSIG
 
LYPG - Podgorica, Crna Gora
Ažurirano: 23/10/2019 05:30
Vedro
Vedro
 Pravac vetra calm
Vetar: Tišina
Temperatura: 12°C
Tačka rose: 8°C
Vlažnost: 77%
Pritisak: 1021 hPa
Pregled: Vedro
Vidljivost: greater than 10 km
2019/10/23 03:30 LYPG 230330Z 00000KT CAVOK 12/08 Q1021 NOSIG
LQSA - Sarajevo, Bosna i Hercegovina
Ažurirano: 23/10/2019 05:30
Vedro
Vedro
 Pravac vetra calm
Vetar: Tišina
Temperatura: 4°C
Tačka rose: 4°C
Vlažnost: 100%
Pritisak: 1024 hPa
Pregled: Vedro
Vidljivost: greater than 10 km
2019/10/23 03:30 LQSA 230330Z 00000KT CAVOK 04/04 Q1024
LDOS - Osijek, Hrvatksa
Ažurirano: 23/10/2019 05:30
Vedro
Vedro
 Pravac vetra SSZ
Vetar: SSZ 4 km/h
Temperatura: 8°C
Tačka rose: 7°C
Vlažnost: 93%
Pritisak: 1021 hPa
Pregled: Vedro
Vidljivost: greater than 10 km
2019/10/23 03:30 LDOS 230330Z 33002KT CAVOK 08/07 Q1021